Time;durP1;ratioP1;P1;durP2;ratioP2;P2;SDS_P1;SDS_P2;PMS_P1;PMS_P2;Temp;Humidity;BMP_temperature;BMP_pressure;BME280_temperature;BME280_humidity;BME280_pressure;Samples;Min_cycle;Max_cycle;Signal;HPM_P1;HPM_P2
2023/06/05 11:01:20;;;;;;;5.37;2.42;;;;;;;24.87;39.71;98980.09;4433281;32;20409;-68
2023/06/05 11:03:59;;;;;;;10.93;2.22;;;;;;;24.67;40.25;98972.28;4448585;32;20166;-67
2023/06/05 11:06:27;;;;;;;6.45;2.40;;;;;;;25.00;41.08;98975.59;4435035;32;20156;-66
2023/06/05 11:09:12;;;;;;;50.90;4.10;;;;;;;25.01;40.71;98969.19;4445145;32;20092;-66
2023/06/05 11:12:01;;;;;;;7.60;2.58;;;;;;;25.23;41.01;98964.97;4443181;32;20085;-67
2023/06/05 11:14:48;;;;;;;5.68;2.47;;;;;;;25.04;41.42;98971.44;4446182;32;20204;-66
2023/06/05 11:17:28;;;;;;;15.23;2.70;;;;;;;24.82;43.71;98971.91;4447747;32;20097;-67
2023/06/05 11:19:56;;;;;;;4.03;2.37;;;;;;;24.91;46.07;98965.19;4449122;32;20146;-68
2023/06/05 11:22:25;;;;;;;10.27;2.30;;;;;;;24.83;44.69;98964.69;4460438;32;20108;-67
2023/06/05 11:25:15;;;;;;;5.50;1.80;;;;;;;24.90;42.29;98960.88;4435980;32;20093;-68
2023/06/05 11:27:44;;;;;;;3.33;2.20;;;;;;;25.19;42.41;98958.44;4449131;32;20410;-66
2023/06/05 11:30:15;;;;;;;5.05;2.50;;;;;;;25.11;40.00;98961.44;4448649;32;20089;-67
2023/06/05 11:32:58;;;;;;;10.18;2.80;;;;;;;25.14;40.43;98955.63;4449684;32;20554;-67
2023/06/05 13:12:19;;;;;;;5.72;2.12;;;;;;;26.10;40.88;98887.66;4464432;32;20171;-67
2023/06/05 13:14:46;;;;;;;14.52;2.37;;;;;;;25.82;38.79;98881.94;4469758;32;20117;-67
2023/06/05 13:17:14;;;;;;;7.90;2.42;;;;;;;25.63;38.62;98880.41;4469564;32;20115;-67
2023/06/05 13:19:41;;;;;;;3.92;1.92;;;;;;;25.89;38.77;98878.31;4469161;32;20092;-67
2023/06/05 13:22:08;;;;;;;4.53;2.40;;;;;;;25.72;38.09;98870.16;4470364;32;20816;-67
2023/06/05 13:24:36;;;;;;;5.30;2.42;;;;;;;25.90;37.37;98875.41;4468468;32;20093;-67
2023/06/05 13:27:03;;;;;;;10.70;2.75;;;;;;;26.12;38.18;98864.09;4468117;32;20155;-66
2023/06/05 13:29:31;;;;;;;8.70;2.72;;;;;;;26.16;36.98;98862.56;4469398;32;20089;-67
2023/06/05 13:31:58;;;;;;;96.05;6.47;;;;;;;25.85;37.40;98870.72;4466888;32;20088;-67
2023/06/05 13:34:25;;;;;;;9.40;2.20;;;;;;;25.70;36.37;98866.91;4467876;32;20500;-68
2023/06/05 13:36:56;;;;;;;7.55;2.83;;;;;;;25.60;36.09;98862.94;4468485;32;20164;-68
2023/06/05 13:39:36;;;;;;;11.52;2.45;;;;;;;25.97;38.07;98873.41;4469300;32;20093;-68
2023/06/05 13:42:04;;;;;;;8.07;2.17;;;;;;;26.04;37.90;98865.25;4467845;32;20123;-68
2023/06/05 13:44:31;;;;;;;8.52;2.28;;;;;;;26.05;38.96;98866.91;4468229;32;20093;-68
2023/06/05 13:47:00;;;;;;;5.05;2.33;;;;;;;26.15;38.49;98860.94;4467382;32;20109;-67
2023/06/05 13:49:30;;;;;;;10.52;2.75;;;;;;;25.94;36.32;98860.47;4467854;32;20123;-67
2023/06/05 13:51:58;;;;;;;16.50;2.47;;;;;;;26.03;37.23;98866.31;4469050;32;20093;-69
2023/06/05 13:54:27;;;;;;;24.08;2.42;;;;;;;25.83;38.25;98859.44;4469075;32;20097;-67
2023/06/05 13:56:55;;;;;;;15.27;2.78;;;;;;;25.81;36.40;98858.03;4469682;32;20122;-67
2023/06/05 13:59:22;;;;;;;10.57;3.87;;;;;;;25.70;36.75;98856.16;4469667;32;20434;-69
2023/06/05 14:01:50;;;;;;;17.00;2.90;;;;;;;25.56;36.56;98856.41;4468613;32;20097;-67
2023/06/05 14:04:18;;;;;;;14.30;2.50;;;;;;;25.61;37.06;98856.50;4469879;32;20097;-68
2023/06/05 14:06:45;;;;;;;13.73;2.83;;;;;;;25.77;38.66;98856.84;4469163;32;20387;-68
2023/06/05 14:09:12;;;;;;;27.02;2.80;;;;;;;25.26;38.52;98851.09;4468820;32;20505;-68
2023/06/05 14:11:44;;;;;;;6.65;2.20;;;;;;;25.49;38.53;98851.13;4469024;32;20113;-68
2023/06/05 14:14:12;;;;;;;11.68;2.80;;;;;;;25.62;38.38;98850.09;4469645;32;20101;-67
2023/06/05 14:16:39;;;;;;;16.65;2.83;;;;;;;25.39;37.69;98844.72;4468198;32;20378;-67
2023/06/05 14:19:06;;;;;;;7.68;2.85;;;;;;;25.48;41.04;98838.78;4469722;32;20111;-67
2023/06/05 14:21:33;;;;;;;5.47;2.10;;;;;;;25.37;37.78;98838.78;4467306;32;20135;-67
2023/06/05 14:24:01;;;;;;;6.30;2.20;;;;;;;25.35;37.92;98840.88;4466983;32;20112;-67
2023/06/05 14:26:29;;;;;;;4.62;2.45;;;;;;;25.42;37.19;98839.72;4456673;32;20096;-68
2023/06/05 14:28:57;;;;;;;9.25;2.40;;;;;;;25.39;38.62;98839.34;4453678;32;20150;-67
2023/06/05 14:31:27;;;;;;;35.25;4.00;;;;;;;25.46;37.92;98837.38;4460548;32;20496;-67
2023/06/05 14:33:55;;;;;;;8.82;2.47;;;;;;;25.64;37.07;98848.00;4464737;32;20143;-67
2023/06/05 14:36:22;;;;;;;11.68;2.70;;;;;;;25.58;37.64;98837.38;4462636;32;20088;-67
2023/06/05 14:38:49;;;;;;;7.05;2.55;;;;;;;25.60;38.08;98832.59;4468229;32;20100;-67
2023/06/05 14:41:17;;;;;;;8.23;2.53;;;;;;;25.28;37.24;98835.59;4455251;32;20105;-67
2023/06/05 14:43:44;;;;;;;11.80;2.83;;;;;;;25.11;39.01;98833.56;4452813;32;20135;-67
2023/06/05 14:46:11;;;;;;;3.40;2.42;;;;;;;25.19;38.90;98834.28;4453696;32;20112;-67
2023/06/05 14:48:39;;;;;;;11.18;2.47;;;;;;;25.16;38.40;98835.56;4453827;32;20167;-67
2023/06/05 14:51:07;;;;;;;17.85;2.50;;;;;;;25.08;38.77;98839.41;4453855;32;20436;-67
2023/06/05 14:53:34;;;;;;;7.15;2.58;;;;;;;25.12;38.92;98826.38;4453471;32;20086;-67
2023/06/05 14:56:02;;;;;;;11.48;2.83;;;;;;;25.01;38.55;98824.47;4453913;32;20161;-67
2023/06/05 14:58:31;;;;;;;3.58;2.25;;;;;;;24.90;38.41;98826.87;4456296;32;20120;-67
2023/06/05 15:00:58;;;;;;;7.30;2.22;;;;;;;24.88;39.67;98822.81;4462311;32;20152;-67
2023/06/05 15:03:27;;;;;;;5.82;2.42;;;;;;;24.82;38.72;98829.91;4467648;32;20123;-67
2023/06/05 15:05:54;;;;;;;3.72;2.33;;;;;;;24.79;40.15;98825.00;4466553;32;20567;-67
2023/06/05 15:08:21;;;;;;;10.70;2.60;;;;;;;24.69;39.91;98825.53;4465565;32;20136;-67
2023/06/05 15:10:50;;;;;;;10.82;2.80;;;;;;;24.69;40.41;98828.22;4468890;32;20537;-66
2023/06/05 15:13:17;;;;;;;8.27;2.55;;;;;;;24.49;40.03;98820.44;4456482;32;20097;-66
2023/06/05 15:15:44;;;;;;;7.12;3.22;;;;;;;24.41;40.11;98810.03;4452913;32;20152;-66
2023/06/05 15:18:12;;;;;;;4.68;2.00;;;;;;;24.24;40.76;98807.19;4452609;32;20120;-68
2023/06/05 15:20:39;;;;;;;26.52;4.10;;;;;;;24.14;40.31;98802.34;4451533;32;20102;-67
2023/06/05 15:23:07;;;;;;;10.98;2.60;;;;;;;24.00;41.04;98806.22;4451849;32;20119;-67
2023/06/05 15:25:43;;;;;;;15.38;3.25;;;;;;;24.02;40.69;98809.50;4451043;32;20218;-67
2023/06/05 15:28:15;;;;;;;14.00;2.70;;;;;;;23.92;41.23;98807.31;4450740;32;20080;-66
2023/06/05 15:30:44;;;;;;;4.03;1.85;;;;;;;24.00;41.17;98795.53;4451480;32;20152;-66
2023/06/05 15:33:12;;;;;;;12.02;2.80;;;;;;;23.97;42.34;98801.28;4451669;32;20149;-68
2023/06/05 15:35:42;;;;;;;12.02;2.62;;;;;;;24.09;42.67;98794.19;4453036;32;20423;-67
2023/06/05 15:38:11;;;;;;;7.45;2.53;;;;;;;23.84;42.81;98781.66;4451381;32;20097;-67
2023/06/05 15:40:38;;;;;;;10.00;2.45;;;;;;;23.84;42.12;98788.87;4451317;32;20117;-67
2023/06/05 15:43:11;;;;;;;7.57;2.78;;;;;;;24.01;43.57;98789.13;4451870;32;20096;-67
2023/06/05 15:45:39;;;;;;;11.35;2.53;;;;;;;23.92;43.43;98781.41;4452083;32;20081;-67
2023/06/05 15:48:06;;;;;;;10.80;2.87;;;;;;;23.80;43.56;98788.50;4451508;32;20124;-67
2023/06/05 15:50:34;;;;;;;16.67;3.60;;;;;;;23.76;43.87;98781.97;4451572;32;20476;-67
2023/06/05 15:53:01;;;;;;;7.93;2.42;;;;;;;23.72;43.44;98783.44;4452269;32;20152;-67
2023/06/05 15:55:29;;;;;;;12.13;2.70;;;;;;;23.67;44.22;98780.63;4453011;32;20089;-67
2023/06/05 15:57:56;;;;;;;14.27;2.97;;;;;;;23.75;44.49;98777.62;4452871;32;20089;-67
2023/06/05 16:00:24;;;;;;;6.35;2.30;;;;;;;23.65;44.31;98772.81;4453212;32;20411;-67
2023/06/05 16:02:54;;;;;;;4.82;2.28;;;;;;;23.54;44.98;98774.37;4453348;32;20093;-67
2023/06/05 16:05:22;;;;;;;5.05;2.62;;;;;;;23.49;44.49;98776.06;4453506;32;20107;-67
2023/06/05 16:07:50;;;;;;;9.60;2.35;;;;;;;23.40;44.33;98778.22;4453595;32;20788;-68
2023/06/05 16:10:19;;;;;;;7.35;3.10;;;;;;;23.42;45.60;98770.78;4453289;32;20092;-67
2023/06/05 16:12:46;;;;;;;25.17;2.85;;;;;;;23.31;45.22;98775.00;4449336;32;20872;-67
2023/06/05 16:15:16;;;;;;;14.98;4.68;;;;;;;23.25;45.64;98765.19;4468929;32;20107;-68
2023/06/05 16:17:44;;;;;;;11.15;3.53;;;;;;;23.26;45.96;98769.50;4468767;32;20151;-67
2023/06/05 16:20:11;;;;;;;28.42;4.10;;;;;;;23.19;46.05;98771.41;4468927;32;20097;-67
2023/06/05 16:22:38;;;;;;;12.18;3.10;;;;;;;23.32;47.03;98765.13;4454404;32;20175;-67
2023/06/05 16:25:07;;;;;;;7.57;3.08;;;;;;;23.27;46.35;98767.63;4468672;32;20520;-67
2023/06/05 16:27:34;;;;;;;58.67;4.80;;;;;;;23.17;46.07;98770.81;4469001;32;20111;-67
2023/06/05 16:30:02;;;;;;;11.30;2.47;;;;;;;23.08;45.67;98767.56;4468561;32;20089;-67
2023/06/05 16:32:29;;;;;;;10.60;2.60;;;;;;;23.09;46.46;98766.56;4469208;32;20484;-67
2023/06/05 16:34:58;;;;;;;48.33;8.32;;;;;;;23.13;45.03;98766.94;4470463;32;20093;-67
2023/06/05 16:37:29;;;;;;;12.15;3.35;;;;;;;22.96;44.18;98758.63;4470195;32;20109;-67
2023/06/05 18:47:54;;;;;;;4.20;2.90;;;;;;;20.65;51.73;98748.22;4468363;32;35320;-67
2023/06/05 18:50:22;;;;;;;4.70;2.50;;;;;;;20.59;52.28;98751.69;4469516;32;20165;-67
2023/06/05 18:52:49;;;;;;;3.22;2.42;;;;;;;20.56;52.65;98750.28;4469356;32;20107;-67
2023/06/05 18:55:16;;;;;;;5.43;2.90;;;;;;;20.49;53.67;98752.09;4469359;32;20161;-67
2023/06/05 18:57:43;;;;;;;4.60;2.70;;;;;;;20.38;54.65;98750.84;4469651;32;20151;-67
2023/06/05 19:00:11;;;;;;;9.85;3.10;;;;;;;20.28;55.19;98748.56;4469191;32;20103;-67
2023/06/05 19:02:39;;;;;;;4.10;2.60;;;;;;;20.29;55.61;98744.06;4469662;32;20154;-67
2023/06/05 19:05:06;;;;;;;5.55;3.12;;;;;;;20.30;55.99;98745.69;4469369;32;20097;-67
2023/06/05 19:07:35;;;;;;;5.97;2.50;;;;;;;20.25;56.71;98740.16;4469404;32;20504;-67
2023/06/05 19:10:05;;;;;;;7.18;2.78;;;;;;;20.15;56.97;98748.50;4469384;32;20100;-67
2023/06/05 19:12:33;;;;;;;7.78;3.05;;;;;;;20.16;56.89;98748.31;4469047;32;20202;-67
2023/06/05 19:15:03;;;;;;;4.72;2.65;;;;;;;20.16;56.73;98752.81;4469422;32;20088;-67
2023/06/05 19:17:30;;;;;;;5.03;2.80;;;;;;;20.13;56.92;98756.69;4469223;32;20500;-67
2023/06/05 19:19:57;;;;;;;5.35;2.53;;;;;;;20.15;56.58;98753.81;4469472;32;20093;-67
2023/06/05 19:22:24;;;;;;;6.97;2.67;;;;;;;20.17;56.21;98751.81;4469449;32;20532;-67
2023/06/05 19:24:52;;;;;;;7.57;3.30;;;;;;;20.11;56.67;98757.94;4469296;32;20085;-67
2023/06/05 19:27:21;;;;;;;5.60;2.90;;;;;;;20.06;57.25;98760.34;4469418;32;20163;-67
2023/06/05 19:29:49;;;;;;;11.50;2.67;;;;;;;20.06;57.12;98755.88;4469198;32;20097;-67
2023/06/05 19:32:16;;;;;;;3.45;2.42;;;;;;;20.02;57.45;98755.41;4469207;32;20093;-67
2023/06/05 19:34:44;;;;;;;4.82;2.90;;;;;;;19.99;57.62;98755.81;4469452;32;20097;-67
2023/06/05 19:37:11;;;;;;;6.78;3.78;;;;;;;20.05;57.24;98753.41;4469008;32;20097;-67
2023/06/05 19:39:38;;;;;;;4.03;2.70;;;;;;;20.06;56.36;98750.53;4469280;32;20140;-67
2023/06/05 19:42:08;;;;;;;10.43;2.97;;;;;;;20.09;56.12;98747.50;4454782;32;20519;-67
2023/06/05 19:44:35;;;;;;;4.57;3.10;;;;;;;20.08;55.84;98753.00;4469322;32;20100;-67
2023/06/05 19:47:03;;;;;;;5.25;3.08;;;;;;;20.07;55.86;98749.50;4469088;32;20093;-67
2023/06/05 19:49:30;;;;;;;4.82;2.97;;;;;;;20.06;56.54;98760.34;4469060;32;20123;-67
2023/06/05 19:51:57;;;;;;;6.72;3.22;;;;;;;20.13;55.23;98751.37;4469079;32;20096;-67
2023/06/05 19:54:25;;;;;;;4.62;3.10;;;;;;;20.14;54.95;98752.22;4469124;32;20175;-67
2023/06/05 19:56:52;;;;;;;7.37;2.87;;;;;;;20.12;54.54;98759.53;4468955;32;20106;-67
2023/06/05 19:59:19;;;;;;;9.90;2.95;;;;;;;20.12;54.68;98752.41;4469050;32;20077;-67
2023/06/05 20:01:47;;;;;;;5.97;3.50;;;;;;;20.15;55.02;98753.81;4468874;32;20089;-67
2023/06/05 20:04:15;;;;;;;6.37;3.10;;;;;;;20.13;55.13;98755.88;4469148;32;20092;-67
2023/06/05 20:06:42;;;;;;;5.57;2.67;;;;;;;20.14;54.98;98753.00;4453864;32;20179;-67
2023/06/05 20:09:09;;;;;;;6.95;2.80;;;;;;;20.15;55.27;98753.81;4468877;32;20455;-67
2023/06/05 20:11:36;;;;;;;6.85;2.80;;;;;;;20.17;55.17;98749.16;4468654;32;20119;-67
2023/06/05 20:14:04;;;;;;;7.80;3.03;;;;;;;20.14;55.85;98746.88;4468751;32;20100;-67
2023/06/05 20:16:31;;;;;;;5.45;2.95;;;;;;;20.10;55.97;98743.78;4468862;32;20097;-67
2023/06/05 20:18:58;;;;;;;7.32;3.40;;;;;;;20.08;55.85;98747.69;4468898;32;20119;-67
2023/06/05 20:21:25;;;;;;;6.40;3.25;;;;;;;20.10;55.84;98741.13;4468692;32;20490;-67
2023/06/05 20:23:54;;;;;;;6.40;2.78;;;;;;;20.10;56.41;98748.28;4468769;32;20111;-67
2023/06/05 20:26:22;;;;;;;6.80;2.80;;;;;;;20.21;56.31;98753.03;4468685;32;20092;-67
2023/06/05 20:28:50;;;;;;;5.85;3.00;;;;;;;20.18;57.08;98764.06;4454449;32;20127;-66
2023/06/05 20:31:18;;;;;;;12.80;2.83;;;;;;;20.16;57.68;98758.13;4468507;32;20097;-67
2023/06/05 20:33:45;;;;;;;5.72;3.22;;;;;;;20.16;58.03;98766.91;4468555;32;20179;-66
2023/06/05 20:36:14;;;;;;;5.35;2.92;;;;;;;20.37;54.62;98765.97;4468537;32;20205;-67
2023/06/05 20:38:42;;;;;;;6.62;2.97;;;;;;;20.39;55.58;98763.94;4468551;32;20100;-67
2023/06/05 20:41:12;;;;;;;4.20;2.60;;;;;;;20.35;54.39;98765.34;4468497;32;20153;-66
2023/06/05 20:43:45;;;;;;;6.57;3.42;;;;;;;20.53;54.51;98780.75;4468554;32;20084;-67
2023/06/05 20:46:13;;;;;;;6.07;3.47;;;;;;;20.47;58.10;98808.19;4468251;32;20135;-67
2023/06/05 20:48:41;;;;;;;7.68;3.50;;;;;;;20.13;62.38;98809.06;4468316;32;20099;-67
2023/06/05 20:51:09;;;;;;;13.88;3.55;;;;;;;19.68;65.86;98799.63;4468207;32;20176;-66
2023/06/05 20:53:37;;;;;;;20.20;3.47;;;;;;;19.56;68.22;98797.69;4468376;32;20101;-66
2023/06/05 20:56:05;;;;;;;5.68;3.40;;;;;;;19.38;71.36;98800.81;4468382;32;20092;-66
2023/06/05 20:58:32;;;;;;;10.80;3.60;;;;;;;19.18;75.47;98801.47;4454191;32;20128;-66
2023/06/05 21:00:59;;;;;;;13.30;3.65;;;;;;;19.06;77.68;98803.87;4468080;32;20127;-66
2023/06/05 21:03:27;;;;;;;7.95;3.35;;;;;;;18.94;81.64;98800.91;4468321;32;20097;-66
2023/06/05 21:05:55;;;;;;;6.37;2.85;;;;;;;18.94;81.09;98800.91;4468151;32;20179;-66
2023/06/05 21:08:22;;;;;;;6.62;3.33;;;;;;;18.88;84.19;98800.81;4454198;32;20084;-66
2023/06/05 21:10:49;;;;;;;7.10;3.30;;;;;;;18.74;86.87;98795.38;4467942;32;20503;-66
2023/06/05 21:13:16;;;;;;;6.47;3.87;;;;;;;18.70;88.05;98793.25;4467671;32;20146;-66
2023/06/05 21:15:43;;;;;;;10.02;3.17;;;;;;;18.59;90.37;98790.13;4468294;32;20096;-67
2023/06/05 21:18:10;;;;;;;6.93;3.30;;;;;;;18.51;94.00;98800.84;4468408;32;20134;-67
2023/06/05 21:20:38;;;;;;;7.20;3.20;;;;;;;18.31;98.71;98805.09;4470251;32;20549;-67
2023/06/05 21:23:06;;;;;;;5.07;2.95;;;;;;;18.16;100.00;98805.13;4470039;32;20519;-67
2023/06/05 21:25:34;;;;;;;4.75;3.10;;;;;;;18.13;100.00;98803.66;4470161;32;20091;-66
2023/06/05 21:28:02;;;;;;;5.95;3.30;;;;;;;18.13;100.00;98798.34;4470118;32;20092;-67
2023/06/05 21:30:29;;;;;;;16.37;3.95;;;;;;;18.21;100.00;98790.31;4470199;32;20093;-67
2023/06/05 21:32:57;;;;;;;9.07;4.75;;;;;;;18.10;100.00;98793.44;4469927;32;20137;-66
2023/06/05 21:35:26;;;;;;;8.18;3.53;;;;;;;18.11;100.00;98795.06;4469950;32;20160;-67
2023/06/05 21:37:54;;;;;;;7.43;3.50;;;;;;;18.09;100.00;98799.72;4470115;32;20635;-67
2023/06/05 21:40:21;;;;;;;11.95;4.32;;;;;;;17.91;100.00;98790.34;4470153;32;20092;-66
2023/06/05 21:42:48;;;;;;;11.68;4.30;;;;;;;17.76;100.00;98786.00;4470019;32;20849;-66
2023/06/05 21:45:16;;;;;;;7.93;3.80;;;;;;;17.74;100.00;98789.69;4469924;32;20108;-67
2023/06/05 21:47:44;;;;;;;5.28;3.87;;;;;;;17.61;100.00;98784.19;4469678;32;20088;-66
2023/06/05 21:50:11;;;;;;;6.57;3.65;;;;;;;17.60;100.00;98774.59;4470238;32;20089;-66
2023/06/05 21:52:38;;;;;;;7.87;3.33;;;;;;;17.59;100.00;98769.47;4470183;32;20124;-66
2023/06/05 21:55:06;;;;;;;4.78;3.45;;;;;;;17.42;100.00;98780.25;4469711;32;20108;-66
2023/06/05 21:57:33;;;;;;;44.58;6.40;;;;;;;17.37;100.00;98774.69;4469893;32;20117;-66
2023/06/05 22:00:00;;;;;;;6.70;3.30;;;;;;;17.45;100.00;98777.22;4469600;32;20813;-67
2023/06/05 22:02:27;;;;;;;5.65;3.20;;;;;;;17.39;100.00;98772.66;4455568;32;20471;-66
2023/06/05 22:04:55;;;;;;;7.87;3.85;;;;;;;17.36;100.00;98773.03;4469852;32;20159;-66
2023/06/05 22:07:28;;;;;;;6.62;4.22;;;;;;;17.36;100.00;98773.03;4469736;32;20112;-66
2023/06/05 22:09:56;;;;;;;5.97;3.60;;;;;;;17.37;100.00;98766.72;4470090;32;20089;-66
2023/06/05 22:12:24;;;;;;;7.70;4.12;;;;;;;17.30;100.00;98765.81;4469368;32;20100;-66
2023/06/05 22:14:52;;;;;;;5.85;3.60;;;;;;;17.30;100.00;98771.91;4469923;32;20115;-66
2023/06/05 22:17:25;;;;;;;6.05;3.70;;;;;;;17.27;100.00;98772.28;4469861;32;20116;-66
2023/06/05 22:19:57;;;;;;;9.43;4.45;;;;;;;17.18;100.00;98771.56;4470114;32;20415;-66
2023/06/05 22:22:25;;;;;;;6.93;4.25;;;;;;;17.16;100.00;98768.25;4469955;32;20877;-66
2023/06/05 22:24:52;;;;;;;5.75;4.18;;;;;;;17.09;100.00;98769.94;4469691;32;20141;-66
2023/06/05 22:27:24;;;;;;;8.88;4.70;;;;;;;17.05;100.00;98778.44;4469753;32;20069;-67
2023/06/05 22:29:53;;;;;;;9.35;4.28;;;;;;;17.09;100.00;98780.53;4469146;32;20119;-66
2023/06/05 22:32:20;;;;;;;6.90;4.30;;;;;;;17.04;100.00;98790.84;4469660;32;20084;-66
2023/06/05 22:34:49;;;;;;;8.70;4.22;;;;;;;16.96;100.00;98806.81;4469841;32;20200;-66
2023/06/05 22:37:16;;;;;;;10.57;4.50;;;;;;;16.95;100.00;98811.25;4469615;32;20110;-66
2023/06/05 22:39:44;;;;;;;13.38;5.07;;;;;;;16.93;100.00;98823.84;4470123;32;20096;-66
2023/06/05 22:42:11;;;;;;;9.57;4.62;;;;;;;16.84;100.00;98811.66;4469608;32;20100;-66
2023/06/05 22:44:39;;;;;;;7.12;3.95;;;;;;;16.87;100.00;98792.00;4469654;32;20093;-66
2023/06/05 22:47:09;;;;;;;7.05;3.80;;;;;;;16.64;100.00;98784.84;4469595;32;20607;-66
2023/06/05 22:49:37;;;;;;;9.68;3.87;;;;;;;16.67;100.00;98787.16;4469402;32;20077;-66
2023/06/05 22:52:08;;;;;;;13.07;4.28;;;;;;;16.58;100.00;98775.78;4455204;32;20135;-66
2023/06/05 22:54:36;;;;;;;9.52;4.57;;;;;;;16.54;100.00;98771.03;4469838;32;20153;-66
2023/06/05 22:57:06;;;;;;;13.73;4.65;;;;;;;16.47;100.00;98758.50;4469462;32;20077;-66
2023/06/05 22:59:34;;;;;;;9.23;4.37;;;;;;;16.43;100.00;98762.50;4469712;32;20386;-66
2023/06/05 23:02:01;;;;;;;8.35;4.30;;;;;;;16.40;100.00;98757.56;4469578;32;20167;-66
